Time;durP1;ratioP1;P1;durP2;ratioP2;P2;SDS_P1;SDS_P2;PMS_P1;PMS_P2;Temp;Humidity;BMP_temperature;BMP_pressure;BME280_temperature;BME280_humidity;BME280_pressure;Samples;Min_cycle;Max_cycle;Signal;HPM_P1;HPM_P2
2021/10/25 00:02:04;;;;;;;6.13;5.53;;;;;;;8.70;67.93;101459.34;5032232;28;20485;-43
2021/10/25 00:04:30;;;;;;;6.43;5.43;;;;;;;8.70;68.21;101459.34;5026376;28;20032;-43
2021/10/25 00:06:57;;;;;;;5.70;5.03;;;;;;;8.70;67.94;101461.09;5037185;28;20064;-43
2021/10/25 00:09:22;;;;;;;5.60;4.95;;;;;;;8.68;67.95;101466.34;5033365;28;20481;-43
2021/10/25 00:11:48;;;;;;;7.88;5.82;;;;;;;8.68;67.97;101465.47;5035022;28;20072;-43
2021/10/25 00:14:13;;;;;;;5.53;5.03;;;;;;;8.68;67.93;101460.19;5037664;28;20109;-43
2021/10/25 00:16:41;;;;;;;5.90;4.93;;;;;;;8.67;68.02;101463.72;5032895;28;20095;-44
2021/10/25 00:19:07;;;;;;;5.95;4.95;;;;;;;8.68;68.15;101461.09;5033424;28;20048;-43
2021/10/25 00:21:33;;;;;;;6.85;5.93;;;;;;;8.67;67.90;101455.81;5033463;28;20034;-43
2021/10/25 00:23:58;;;;;;;6.70;4.93;;;;;;;8.69;67.79;101456.69;5050295;28;20107;-43
2021/10/25 00:26:23;;;;;;;5.68;5.03;;;;;;;8.68;67.85;101452.31;5036169;28;20115;-43
2021/10/25 00:28:49;;;;;;;6.82;5.38;;;;;;;8.65;67.75;101444.38;5046630;28;20032;-43
2021/10/25 00:31:14;;;;;;;6.80;5.47;;;;;;;8.66;67.93;101446.13;5039461;28;20033;-43
2021/10/25 00:33:40;;;;;;;6.70;5.30;;;;;;;8.65;67.95;101450.53;5035467;28;20452;-42
2021/10/25 00:36:05;;;;;;;6.18;5.22;;;;;;;8.65;67.95;101450.53;5037662;28;20029;-43
2021/10/25 00:38:31;;;;;;;6.82;5.53;;;;;;;8.65;67.95;101453.16;5041348;28;20056;-43
2021/10/25 00:40:56;;;;;;;7.10;5.18;;;;;;;8.64;67.72;101445.25;5030279;28;20067;-44
2021/10/25 00:43:21;;;;;;;5.53;4.97;;;;;;;8.66;67.99;101446.13;5031153;28;20144;-44
2021/10/25 00:45:47;;;;;;;11.70;5.50;;;;;;;8.65;67.92;101449.66;5024325;28;20052;-43
2021/10/25 00:48:12;;;;;;;6.47;4.57;;;;;;;8.64;68.00;101450.50;5041754;28;20029;-43
2021/10/25 00:50:38;;;;;;;6.28;5.50;;;;;;;8.65;67.88;101445.28;5032586;28;20388;-43
2021/10/25 00:53:04;;;;;;;5.80;5.20;;;;;;;8.66;67.73;101448.78;5032185;28;20052;-43
2021/10/25 00:55:30;;;;;;;7.15;5.85;;;;;;;8.64;68.02;101442.63;5015558;28;20036;-44
2021/10/25 00:57:55;;;;;;;7.47;5.45;;;;;;;8.63;67.84;101438.25;5034020;28;20096;-43
2021/10/25 01:00:22;;;;;;;6.13;5.38;;;;;;;8.63;67.70;101443.50;5029022;28;20526;-43
2021/10/25 01:02:48;;;;;;;5.40;4.90;;;;;;;8.63;67.62;101435.59;5029365;28;20029;-42
2021/10/25 01:05:14;;;;;;;7.78;5.95;;;;;;;8.63;67.86;101425.97;5030614;28;20029;-42
2021/10/25 01:07:40;;;;;;;6.05;5.38;;;;;;;8.62;67.73;101433.81;5018417;28;20155;-42
2021/10/25 01:10:05;;;;;;;7.35;5.30;;;;;;;8.62;67.64;101428.56;5021631;28;20071;-42
2021/10/25 01:12:31;;;;;;;7.65;5.80;;;;;;;8.62;67.71;101432.09;5041047;28;20029;-42
2021/10/25 01:14:57;;;;;;;8.13;5.43;;;;;;;8.63;67.80;101432.97;5039702;28;20021;-42
2021/10/25 01:17:23;;;;;;;6.18;5.57;;;;;;;8.60;67.84;101432.06;5043041;28;20032;-42
2021/10/25 01:19:55;;;;;;;6.18;5.57;;;;;;;8.60;67.70;101432.06;5044387;28;20119;-41
2021/10/25 01:22:24;;;;;;;6.35;5.13;;;;;;;8.60;67.69;101436.44;5032843;28;20120;-42
2021/10/25 01:24:50;;;;;;;5.82;5.32;;;;;;;8.59;67.74;101430.31;5029628;28;20030;-42
2021/10/25 01:27:16;;;;;;;8.18;5.38;;;;;;;8.58;67.70;101431.16;5042193;28;20064;-42
2021/10/25 01:29:42;;;;;;;6.93;5.65;;;;;;;8.59;67.58;101419.78;5040596;28;20029;-42
2021/10/25 01:32:07;;;;;;;6.47;5.75;;;;;;;8.59;67.58;101429.41;5031806;28;20114;-42
2021/10/25 01:34:32;;;;;;;5.53;4.97;;;;;;;8.58;67.82;101431.16;5033485;28;20032;-42
2021/10/25 01:36:58;;;;;;;6.28;5.05;;;;;;;8.58;67.74;101425.03;5026363;28;20033;-42
2021/10/25 01:39:23;;;;;;;6.13;5.53;;;;;;;8.57;67.67;101424.13;5030772;28;20041;-42
2021/10/25 01:41:48;;;;;;;6.65;5.90;;;;;;;8.56;67.62;101417.13;5023053;28;20024;-41
2021/10/25 01:44:14;;;;;;;6.60;5.45;;;;;;;8.54;67.63;101418.84;5018477;28;20112;-41
2021/10/25 01:46:42;;;;;;;6.28;5.43;;;;;;;8.54;67.77;101410.94;5030354;28;20029;-41
2021/10/25 01:49:08;;;;;;;6.10;5.50;;;;;;;8.55;67.68;101411.84;5044308;28;20059;-42
2021/10/25 01:51:33;;;;;;;6.88;6.18;;;;;;;8.54;67.68;101410.09;5048086;28;20033;-42
2021/10/25 01:53:59;;;;;;;6.63;6.03;;;;;;;8.54;67.66;101412.72;5050965;28;20025;-42
2021/10/25 01:56:25;;;;;;;7.07;5.28;;;;;;;8.55;67.38;101407.47;5031379;28;20033;-42
2021/10/25 01:58:50;;;;;;;6.03;5.40;;;;;;;8.52;67.62;101406.50;5031460;28;20044;-41
2021/10/25 02:01:17;;;;;;;7.28;5.57;;;;;;;8.53;67.50;101396.06;5031352;28;20026;-42
2021/10/25 02:03:42;;;;;;;8.50;6.15;;;;;;;8.53;67.73;101397.75;5035524;28;20123;-41
2021/10/25 02:06:08;;;;;;;6.90;5.75;;;;;;;8.51;67.58;101403.03;5036454;28;20037;-42
2021/10/25 02:08:33;;;;;;;6.10;5.50;;;;;;;8.54;67.57;101397.81;5044583;28;20082;-42
2021/10/25 02:10:58;;;;;;;6.88;6.18;;;;;;;8.53;67.62;101392.50;5050092;28;20033;-42
2021/10/25 02:13:24;;;;;;;6.47;5.60;;;;;;;8.52;67.42;101396.88;5043383;28;20025;-43
2021/10/25 02:15:50;;;;;;;6.03;5.43;;;;;;;8.52;67.59;101391.63;5039864;28;20025;-44
2021/10/25 02:18:15;;;;;;;7.22;5.88;;;;;;;8.52;67.36;101391.63;5034205;28;20100;-41
2021/10/25 02:20:41;;;;;;;7.93;6.13;;;;;;;8.48;67.70;101390.69;5030994;28;20026;-42
2021/10/25 02:23:08;;;;;;;6.22;5.60;;;;;;;8.50;67.40;101388.09;5031412;28;20108;-42
2021/10/25 02:25:34;;;;;;;6.82;6.13;;;;;;;8.48;67.56;101395.09;5050570;28;20040;-42
2021/10/25 02:27:59;;;;;;;7.18;6.20;;;;;;;8.49;67.57;101399.47;5033105;28;20126;-42
2021/10/25 02:30:25;;;;;;;7.28;5.78;;;;;;;8.48;67.62;101389.84;5047686;28;20071;-42
2021/10/25 02:32:50;;;;;;;6.90;6.22;;;;;;;8.47;67.65;101403.81;5030733;28;21049;-45
2021/10/25 02:35:16;;;;;;;6.50;5.90;;;;;;;8.47;67.56;101393.31;5039642;28;20029;-41
2021/10/25 02:37:41;;;;;;;7.07;6.40;;;;;;;8.47;67.53;101396.81;5033133;28;20477;-42
2021/10/25 02:40:07;;;;;;;7.38;5.60;;;;;;;8.45;67.52;101393.31;5024726;28;21361;-42
2021/10/25 02:42:32;;;;;;;7.75;5.72;;;;;;;8.45;67.52;101382.81;5027012;28;20036;-42
2021/10/25 02:44:58;;;;;;;8.00;6.15;;;;;;;8.45;67.45;101385.44;5025995;28;20049;-42
2021/10/25 02:47:23;;;;;;;6.18;5.63;;;;;;;8.47;67.41;101388.03;5029258;28;20033;-42
2021/10/25 02:49:48;;;;;;;7.57;5.60;;;;;;;8.44;67.51;101388.03;5039776;28;20504;-42
2021/10/25 02:52:14;;;;;;;7.18;5.90;;;;;;;8.42;67.46;101385.38;5030532;28;20034;-41
2021/10/25 02:54:39;;;;;;;6.88;5.80;;;;;;;8.42;67.64;101385.38;5030676;28;20460;-46
2021/10/25 02:57:06;;;;;;;6.93;6.18;;;;;;;8.42;67.14;101384.50;5036721;28;20053;-42
2021/10/25 02:59:31;;;;;;;7.05;5.53;;;;;;;8.43;67.37;101381.00;5028294;28;20040;-45
2021/10/25 03:01:56;;;;;;;9.20;6.22;;;;;;;8.41;67.28;101388.00;5026388;28;20574;-42
2021/10/25 03:04:21;;;;;;;7.20;6.10;;;;;;;8.42;67.58;101395.00;5035458;28;20075;-42
2021/10/25 03:06:47;;;;;;;7.32;6.28;;;;;;;8.42;67.09;101388.03;5036418;28;20037;-42
2021/10/25 03:09:12;;;;;;;7.38;6.40;;;;;;;8.42;67.29;101387.13;5034185;28;20049;-42
2021/10/25 03:11:38;;;;;;;6.32;5.65;;;;;;;8.43;67.41;101391.50;5033049;28;20061;-42
2021/10/25 03:14:03;;;;;;;8.35;6.05;;;;;;;8.40;67.25;101386.25;5050739;28;20036;-41
2021/10/25 03:16:29;;;;;;;7.65;6.80;;;;;;;8.38;67.31;101395.84;5035856;28;20717;-42
2021/10/25 03:18:54;;;;;;;6.28;5.65;;;;;;;8.41;67.26;101377.47;5034016;28;20029;-42
2021/10/25 03:21:21;;;;;;;9.27;6.60;;;;;;;8.39;67.36;101389.72;5032925;28;20560;-42
2021/10/25 03:23:48;;;;;;;6.35;5.70;;;;;;;8.38;67.32;101390.59;5037044;28;20022;-42
2021/10/25 03:26:15;;;;;;;8.23;6.00;;;;;;;8.37;67.36;101388.84;5034077;28;20092;-42
2021/10/25 03:28:41;;;;;;;7.72;6.20;;;;;;;8.37;67.03;101383.56;5035999;28;20044;-41
2021/10/25 03:31:07;;;;;;;7.30;5.85;;;;;;;8.34;67.45;101381.78;5040434;28;20076;-43
2021/10/25 03:33:35;;;;;;;6.03;5.43;;;;;;;8.36;67.34;101381.81;5038529;28;20031;-42
2021/10/25 03:36:02;;;;;;;7.47;6.53;;;;;;;8.35;67.27;101378.28;5031639;28;20022;-43
2021/10/25 03:38:32;;;;;;;6.85;6.15;;;;;;;8.36;67.27;101373.94;5033113;28;20370;-43
2021/10/25 03:40:58;;;;;;;7.45;6.18;;;;;;;8.33;67.34;101372.13;5033817;28;20026;-43
2021/10/25 03:43:27;;;;;;;7.53;5.75;;;;;;;8.34;67.18;101372.16;5044548;28;20029;-43
2021/10/25 03:46:07;;;;;;;7.43;6.03;;;;;;;8.35;67.24;101378.28;5032458;28;20033;-43
2021/10/25 03:48:42;;;;;;;8.18;6.50;;;;;;;8.32;67.30;101373.91;5033245;28;20420;-43
2021/10/25 03:51:09;;;;;;;6.90;6.20;;;;;;;8.32;67.43;101373.91;5039762;28;20025;-43
2021/10/25 03:53:40;;;;;;;6.65;5.95;;;;;;;8.30;67.36;101374.75;5031629;28;20036;-43
2021/10/25 04:01:27;;;;;;;8.20;6.57;;;;;;;8.29;67.23;101381.72;5045414;28;20024;-43
2021/10/25 04:27:58;;;;;;;;;;;;;;;8.23;67.03;101363.25;5039295;28;20492;-43
2021/10/25 04:30:23;;;;;;;6.65;5.95;;;;;;;8.20;67.09;101357.97;5032400;28;20417;-43
2021/10/25 04:32:49;;;;;;;8.35;6.28;;;;;;;8.20;67.05;101357.97;5037899;28;20029;-43
2021/10/25 04:35:14;;;;;;;7.00;6.15;;;;;;;8.19;67.21;101353.56;5030693;28;20052;-43
2021/10/25 04:37:40;;;;;;;6.78;6.05;;;;;;;8.22;66.83;101351.00;5031454;28;20029;-43
2021/10/25 04:40:07;;;;;;;7.38;6.68;;;;;;;8.20;66.90;101347.44;5032586;28;20067;-43
2021/10/25 04:42:33;;;;;;;7.22;6.35;;;;;;;8.21;66.91;101355.34;5034349;28;20112;-43
2021/10/25 04:44:58;;;;;;;8.05;6.13;;;;;;;8.19;67.19;101350.94;5034142;28;20459;-43
2021/10/25 04:47:24;;;;;;;7.97;6.13;;;;;;;8.18;67.04;101352.72;5030544;28;20064;-43
2021/10/25 04:49:49;;;;;;;7.05;6.35;;;;;;;8.17;66.96;101356.19;5032722;28;20033;-43
2021/10/25 04:52:15;;;;;;;7.15;6.28;;;;;;;8.17;67.04;101357.94;5036865;28;20124;-43
2021/10/25 04:54:40;;;;;;;8.50;6.70;;;;;;;8.18;67.00;101346.56;5031132;28;20377;-43
2021/10/25 04:57:06;;;;;;;7.55;6.22;;;;;;;8.16;67.01;101348.28;5033472;28;20025;-43
2021/10/25 04:59:31;;;;;;;7.40;6.30;;;;;;;8.15;66.94;101343.91;5032490;28;20086;-43
2021/10/25 05:01:57;;;;;;;6.85;6.00;;;;;;;8.14;67.05;101343.00;5035016;28;20083;-44
2021/10/25 05:04:23;;;;;;;7.53;6.72;;;;;;;8.16;66.97;101332.50;5029913;28;20071;-43
2021/10/25 05:06:48;;;;;;;7.07;6.18;;;;;;;8.16;66.88;101340.41;5035026;28;20028;-43
2021/10/25 05:09:14;;;;;;;7.72;6.85;;;;;;;8.13;66.95;101338.63;5038941;28;20017;-43
2021/10/25 05:11:39;;;;;;;7.80;6.88;;;;;;;8.14;66.66;101347.41;5043445;28;20367;-43
2021/10/25 05:14:04;;;;;;;8.02;6.15;;;;;;;8.13;67.02;101341.25;5033767;28;20025;-43
2021/10/25 05:16:30;;;;;;;7.95;6.50;;;;;;;8.12;66.90;101347.38;5031014;28;20057;-43
2021/10/25 05:18:55;;;;;;;7.95;6.68;;;;;;;8.11;66.84;101336.84;5030763;28;20111;-43
2021/10/25 05:21:21;;;;;;;6.43;5.80;;;;;;;8.08;66.75;101340.31;5036854;28;20112;-43
2021/10/25 05:23:46;;;;;;;7.93;6.15;;;;;;;8.08;66.86;101338.56;5049922;28;20093;-43
2021/10/25 05:26:12;;;;;;;7.30;6.43;;;;;;;8.08;66.89;101335.06;5035892;28;20031;-43
2021/10/25 05:28:37;;;;;;;7.55;6.32;;;;;;;8.08;66.82;101338.56;5039862;28;20017;-43
2021/10/25 05:31:02;;;;;;;8.40;5.80;;;;;;;8.08;66.96;101342.94;5047866;28;20394;-43
2021/10/25 05:33:28;;;;;;;7.57;6.20;;;;;;;8.06;66.85;101335.03;5028966;28;20041;-43
2021/10/25 05:35:53;;;;;;;6.97;6.10;;;;;;;8.07;66.78;101334.16;5034540;28;20037;-43
2021/10/25 05:38:19;;;;;;;7.63;6.43;;;;;;;8.05;66.93;101328.03;5039061;28;20025;-43
2021/10/25 05:40:44;;;;;;;6.90;6.07;;;;;;;8.05;66.82;101330.66;5038127;28;20447;-43
2021/10/25 05:43:10;;;;;;;7.22;6.22;;;;;;;8.05;66.81;101333.28;5036771;28;20501;-43
2021/10/25 05:45:36;;;;;;;7.32;6.60;;;;;;;8.01;66.93;101320.97;5045013;28;20055;-43
2021/10/25 05:48:02;;;;;;;7.72;6.70;;;;;;;8.02;66.75;101324.47;5030488;28;20037;-43
2021/10/25 05:50:28;;;;;;;6.82;6.22;;;;;;;8.01;66.63;101323.59;5036291;28;20021;-42
2021/10/25 05:52:54;;;;;;;8.43;6.38;;;;;;;7.99;66.77;101327.94;5030338;28;20030;-43
2021/10/25 05:55:24;;;;;;;11.65;6.10;;;;;;;7.98;66.96;101323.56;5038278;28;20660;-43
2021/10/25 05:57:52;;;;;;;8.63;6.38;;;;;;;7.99;66.87;101319.16;5033644;28;20107;-43
2021/10/25 06:00:20;;;;;;;6.93;6.28;;;;;;;7.99;66.58;101321.81;5034254;28;20469;-43
2021/10/25 06:02:52;;;;;;;7.05;6.20;;;;;;;8.00;66.79;101324.44;5031325;28;20029;-43
2021/10/25 06:05:18;;;;;;;7.45;6.15;;;;;;;8.01;66.74;101325.34;5020331;28;20037;-41
2021/10/25 06:07:43;;;;;;;10.18;7.05;;;;;;;7.99;67.02;101317.44;5042275;28;20018;-41
2021/10/25 06:10:11;;;;;;;8.13;6.18;;;;;;;7.97;66.56;101319.16;5032307;28;20017;-41
2021/10/25 06:12:38;;;;;;;7.55;6.60;;;;;;;7.95;66.83;101323.53;5034168;28;20496;-43
2021/10/25 06:15:09;;;;;;;7.93;6.90;;;;;;;7.95;66.56;101316.53;5033151;28;20028;-43
2021/10/25 06:19:59;;;;;;;6.75;6.10;;;;;;;7.95;66.85;101323.53;5033320;28;20136;-43
2021/10/25 06:22:27;;;;;;;7.65;6.47;;;;;;;7.94;66.64;101324.41;5028733;28;20079;-43
2021/10/25 06:24:53;;;;;;;8.07;7.10;;;;;;;7.93;66.65;101327.84;5030215;28;20030;-43
2021/10/25 06:27:18;;;;;;;7.25;6.50;;;;;;;7.95;66.64;101331.41;5040733;28;20041;-43
2021/10/25 06:29:43;;;;;;;8.85;7.30;;;;;;;7.92;66.65;101332.25;5046625;28;20025;-42
2021/10/25 06:32:09;;;;;;;8.30;7.40;;;;;;;7.93;66.78;101327.84;5043383;28;20051;-43
2021/10/25 06:34:39;;;;;;;8.25;7.32;;;;;;;7.91;66.70;101335.72;5034108;28;20481;-43
2021/10/25 06:37:05;;;;;;;8.35;7.53;;;;;;;7.92;66.68;101336.63;5025755;28;20629;-43
2021/10/25 06:39:38;;;;;;;9.13;7.15;;;;;;;7.92;66.64;101323.47;5040622;28;20048;-43
2021/10/25 06:42:05;;;;;;;8.10;7.28;;;;;;;7.91;66.27;101329.59;5052826;28;20061;-43
2021/10/25 06:44:33;;;;;;;11.00;7.55;;;;;;;7.91;66.54;101332.22;5035803;28;20079;-43
2021/10/25 06:46:59;;;;;;;8.68;7.65;;;;;;;7.92;66.55;101328.72;5034604;28;20076;-43
2021/10/25 06:49:28;;;;;;;8.32;7.07;;;;;;;7.90;66.16;101331.34;5038543;28;20032;-43
2021/10/25 06:51:53;;;;;;;10.18;7.43;;;;;;;7.91;66.48;101334.84;5034728;28;20423;-43
2021/10/25 06:54:18;;;;;;;8.55;7.57;;;;;;;7.90;66.38;101343.59;5035699;28;20690;-42
2021/10/25 06:56:44;;;;;;;9.70;7.38;;;;;;;7.88;66.53;101340.06;5032625;28;20087;-42
2021/10/25 06:59:09;;;;;;;7.68;6.88;;;;;;;7.89;66.69;101331.31;5038777;28;20029;-42
2021/10/25 07:01:34;;;;;;;10.80;8.02;;;;;;;7.89;66.47;101331.31;5033935;28;20040;-43
2021/10/25 07:04:00;;;;;;;10.10;7.55;;;;;;;7.88;66.62;101345.31;5033947;28;20025;-43
2021/10/25 07:06:25;;;;;;;8.57;7.57;;;;;;;7.87;66.35;101343.56;5032058;28;20021;-43
2021/10/25 07:08:52;;;;;;;9.25;7.13;;;;;;;7.86;66.54;101341.78;5044380;28;20029;-43
2021/10/25 07:11:18;;;;;;;16.67;7.85;;;;;;;7.84;66.52;101341.78;5033949;28;20037;-43
2021/10/25 07:13:48;;;;;;;11.55;7.10;;;;;;;7.83;66.72;101343.50;5046449;28;20028;-43
2021/10/25 07:16:19;;;;;;;11.43;7.97;;;;;;;7.86;66.57;101347.03;5053437;28;20059;-43
2021/10/25 07:19:04;;;;;;;11.52;7.50;;;;;;;7.84;66.50;101341.78;5050954;28;20036;-43
2021/10/25 08:10:02;;;;;;;6.43;5.70;;;;;;;7.78;66.84;101325.94;5052319;28;20397;-42
2021/10/25 08:12:30;;;;;;;8.07;7.10;;;;;;;7.79;66.84;101331.22;5012019;28;20084;-43
2021/10/25 08:14:58;;;;;;;7.90;6.25;;;;;;;7.78;66.60;101332.09;5030814;28;20496;-42
2021/10/25 08:17:26;;;;;;;6.97;5.65;;;;;;;7.79;66.71;101335.56;5050796;28;20087;-43
2021/10/25 08:19:52;;;;;;;6.63;5.85;;;;;;;7.80;66.96;101335.59;5035149;28;20528;-42
2021/10/25 08:22:17;;;;;;;6.55;5.75;;;;;;;7.80;66.95;101335.59;5032916;28;20025;-43
2021/10/25 08:24:46;;;;;;;8.15;5.95;;;;;;;7.77;66.81;101329.44;5032473;28;20032;-44
2021/10/25 08:27:13;;;;;;;7.80;6.03;;;;;;;7.78;66.64;101331.19;5044444;28;20119;-43
2021/10/25 08:29:41;;;;;;;8.45;6.72;;;;;;;7.77;66.93;101311.91;5044076;28;20021;-43
2021/10/25 08:32:14;;;;;;;9.10;5.78;;;;;;;7.79;66.64;101304.94;5032933;28;20075;-43
2021/10/25 08:34:56;;;;;;;7.20;6.43;;;;;;;7.77;67.02;101306.66;5035714;28;20040;-45
2021/10/25 08:39:57;;;;;;;10.57;5.93;;;;;;;7.77;66.88;101306.66;5021406;28;20025;-43
2021/10/25 08:42:29;;;;;;;6.50;5.90;;;;;;;7.77;66.84;101317.16;5034745;28;20049;-43
2021/10/25 08:45:08;;;;;;;6.03;5.40;;;;;;;7.78;66.94;101304.94;5033324;28;20025;-42
2021/10/25 08:47:42;;;;;;;7.63;5.88;;;;;;;7.78;66.95;101307.56;5047117;28;20075;-43
2021/10/25 08:50:10;;;;;;;6.05;5.45;;;;;;;7.76;67.26;101314.50;5024496;28;20079;-42
2021/10/25 08:52:36;;;;;;;5.63;5.13;;;;;;;7.77;67.07;101317.16;5038110;28;20048;-43
2021/10/25 08:55:05;;;;;;;7.88;5.65;;;;;;;7.77;67.23;101317.16;5028515;28;20508;-43
2021/10/25 08:57:32;;;;;;;7.95;5.53;;;;;;;7.77;67.02;101311.91;5044601;28;20073;-42
2021/10/25 09:00:05;;;;;;;6.45;5.53;;;;;;;7.78;66.85;101311.06;5050283;28;20029;-44
2021/10/25 09:02:31;;;;;;;5.90;5.30;;;;;;;7.79;67.03;101311.94;5048146;28;20025;-43
2021/10/25 09:05:20;;;;;;;6.07;5.47;;;;;;;7.78;67.18;101308.44;5048484;28;20079;-42
2021/10/25 09:07:57;;;;;;;6.03;5.43;;;;;;;7.78;67.04;101305.81;5030700;28;20033;-42
2021/10/25 09:10:26;;;;;;;6.45;5.18;;;;;;;7.76;67.10;101294.41;5032303;28;20046;-42
2021/10/25 09:13:03;;;;;;;6.25;5.38;;;;;;;7.78;67.39;101297.03;5051379;28;20082;-43
2021/10/25 09:15:31;;;;;;;5.95;5.38;;;;;;;7.77;67.32;101288.28;5035079;28;20045;-43
2021/10/25 09:18:09;;;;;;;6.07;5.43;;;;;;;7.78;67.57;101295.31;5043039;28;20025;-43
2021/10/25 09:20:58;;;;;;;7.85;6.55;;;;;;;7.81;67.36;101291.84;5050896;28;20031;-43
2021/10/25 09:23:44;;;;;;;5.82;5.22;;;;;;;7.81;67.23;101291.84;5030622;28;20025;-43
2021/10/25 09:26:22;;;;;;;6.43;5.25;;;;;;;7.80;67.67;101293.56;5047493;28;20529;-44
2021/10/25 09:28:53;;;;;;;6.18;5.57;;;;;;;7.81;67.39;101303.22;5049784;28;20021;-43
2021/10/25 09:31:47;;;;;;;6.63;5.45;;;;;;;7.81;67.48;101299.72;5045368;28;20017;-43
2021/10/25 09:34:13;;;;;;;6.18;5.50;;;;;;;7.82;67.43;101289.22;5041070;28;20045;-43
2021/10/25 09:36:42;;;;;;;5.82;5.00;;;;;;;7.83;67.41;101288.38;5037576;28;20032;-43
2021/10/25 09:39:18;;;;;;;5.75;5.15;;;;;;;7.82;67.73;101283.97;5051330;28;20166;-43
2021/10/25 09:50:05;;;;;;;5.93;5.28;;;;;;;7.82;67.19;101276.09;5050160;28;20381;-44
2021/10/25 09:52:33;;;;;;;7.47;5.47;;;;;;;7.82;67.41;101286.59;5033182;28;20044;-43
2021/10/25 09:55:13;;;;;;;5.78;5.22;;;;;;;7.82;67.40;101283.09;5046099;28;20079;-43
2021/10/25 09:57:51;;;;;;;6.68;4.78;;;;;;;7.83;67.46;101287.47;5023816;28;20553;-43
2021/10/25 10:00:17;;;;;;;4.60;4.20;;;;;;;7.83;67.64;101280.50;5048834;28;20446;-43
2021/10/25 10:02:43;;;;;;;6.00;5.32;;;;;;;7.81;67.39;101271.69;5038266;28;20025;-43
2021/10/25 10:05:11;;;;;;;5.78;4.97;;;;;;;7.83;67.47;101275.22;5029303;28;20365;-43
2021/10/25 10:07:38;;;;;;;5.90;4.60;;;;;;;7.81;67.45;101286.59;5034699;28;20025;-43
2021/10/25 10:10:06;;;;;;;6.55;5.28;;;;;;;7.82;67.67;101289.22;5041404;28;20114;-43
2021/10/25 10:12:32;;;;;;;5.60;5.05;;;;;;;7.82;67.79;101277.84;5051746;28;20053;-42
2021/10/25 10:14:59;;;;;;;6.28;5.65;;;;;;;7.82;67.69;101277.84;5046488;28;20055;-42
2021/10/25 10:17:37;;;;;;;5.85;5.00;;;;;;;7.81;67.75;101282.19;5048670;28;20034;-43
2021/10/25 10:20:05;;;;;;;6.13;5.50;;;;;;;7.82;67.57;101267.34;5045416;28;20031;-43
2021/10/25 10:22:33;;;;;;;6.53;5.45;;;;;;;7.83;67.85;101258.59;5040379;28;20084;-42
2021/10/25 10:24:58;;;;;;;5.80;5.30;;;;;;;7.83;67.70;101264.72;5037667;28;20108;-43
2021/10/25 10:27:24;;;;;;;7.80;5.90;;;;;;;7.86;67.55;101273.50;5043928;28;20112;-42
2021/10/25 10:29:58;;;;;;;5.97;5.45;;;;;;;7.83;67.53;101272.59;5035068;28;20108;-43
2021/10/25 10:32:30;;;;;;;6.90;5.20;;;;;;;7.83;67.57;101275.22;5036011;28;20025;-43
2021/10/25 10:35:01;;;;;;;8.73;5.20;;;;;;;7.83;67.86;101275.22;5032985;28;20040;-42
2021/10/25 10:37:32;;;;;;;6.60;5.35;;;;;;;7.85;67.76;101279.63;5038183;28;20040;-43
2021/10/25 10:40:01;;;;;;;;;;;;;;;7.87;67.43;101270.03;5042902;28;20035;-43
2021/10/25 10:42:28;;;;;;;6.03;5.47;;;;;;;7.85;68.12;101277.88;5048068;28;20353;-43
2021/10/25 10:45:00;;;;;;;7.13;5.47;;;;;;;7.84;67.74;101276.13;5045060;28;20119;-43
2021/10/25 10:47:37;;;;;;;6.55;5.40;;;;;;;7.85;68.08;101271.72;5045596;28;20109;-43
2021/10/25 10:50:03;;;;;;;8.30;5.82;;;;;;;7.85;68.01;101271.72;5039696;28;20033;-43
2021/10/25 10:52:39;;;;;;;5.35;4.85;;;;;;;7.85;67.97;101263.84;5044577;28;20116;-43
2021/10/25 10:55:22;;;;;;;5.95;5.05;;;;;;;7.86;67.95;101257.72;5025266;28;20025;-44
2021/10/25 11:00:48;;;;;;;6.40;5.45;;;;;;;7.87;67.84;101264.78;5043531;28;20432;-43
2021/10/25 11:03:23;;;;;;;6.20;5.18;;;;;;;7.87;67.95;101259.53;5020915;28;20029;-44
2021/10/25 11:05:59;;;;;;;5.70;5.20;;;;;;;7.88;68.06;101253.38;5035269;28;20021;-43
2021/10/25 11:08:36;;;;;;;8.77;6.13;;;;;;;7.88;67.97;101261.28;5035719;28;20028;-43
2021/10/25 11:11:23;;;;;;;5.57;5.00;;;;;;;7.89;68.00;101263.91;5026521;28;20508;-43
2021/10/25 11:14:03;;;;;;;7.32;5.68;;;;;;;7.89;67.91;101257.78;5033749;28;20035;-44
2021/10/25 11:16:41;;;;;;;6.63;5.60;;;;;;;7.89;68.19;101255.16;5045928;28;20029;-43
2021/10/25 11:19:08;;;;;;;6.05;5.00;;;;;;;7.90;67.85;101262.19;5028898;28;20025;-43
2021/10/25 11:21:36;;;;;;;5.35;4.80;;;;;;;7.90;68.18;101267.44;5033366;28;20092;-42
2021/10/25 11:24:07;;;;;;;5.72;5.13;;;;;;;7.90;67.84;101268.31;5032612;28;20573;-43
2021/10/25 11:26:37;;;;;;;5.75;5.20;;;;;;;7.92;67.84;101263.06;5033291;28;20033;-43
2021/10/25 11:29:05;;;;;;;6.27;5.30;;;;;;;7.91;68.16;101253.44;5034205;28;20045;-44
2021/10/25 11:31:43;;;;;;;6.47;4.85;;;;;;;7.92;67.96;101257.81;5038891;28;20033;-43
2021/10/25 11:34:27;;;;;;;5.68;4.85;;;;;;;7.93;68.10;101264.81;5029391;28;20074;-43
2021/10/25 11:36:55;;;;;;;5.45;4.95;;;;;;;7.94;67.92;101266.59;5035669;28;20057;-43
2021/10/25 11:39:29;;;;;;;6.63;5.95;;;;;;;7.93;67.92;101265.72;5019920;28;20049;-43
2021/10/25 11:41:55;;;;;;;5.68;5.15;;;;;;;7.95;68.06;101252.59;5037813;28;20017;-43
2021/10/25 11:44:20;;;;;;;7.50;5.40;;;;;;;7.93;67.89;101242.06;5036184;28;20368;-46
2021/10/25 11:46:45;;;;;;;5.80;5.07;;;;;;;7.95;68.24;101237.72;5040367;28;20029;-43
2021/10/25 11:49:11;;;;;;;7.82;5.70;;;;;;;7.96;68.01;101249.09;5029656;28;20496;-43
2021/10/25 11:51:55;;;;;;;6.03;5.07;;;;;;;7.97;68.05;101245.59;5035841;28;20033;-43
2021/10/25 11:54:54;;;;;;;5.43;4.90;;;;;;;7.97;67.90;101235.09;5050498;28;20063;-43
2021/10/25 11:57:20;;;;;;;6.07;5.05;;;;;;;7.97;67.91;101235.09;5030616;28;20037;-43
2021/10/25 11:59:56;;;;;;;5.13;4.63;;;;;;;7.98;68.13;101230.72;5033880;28;20025;-44
2021/10/25 12:02:23;;;;;;;6.15;5.13;;;;;;;7.98;68.11;101231.63;5029366;28;20087;-43
2021/10/25 12:04:48;;;;;;;8.27;5.47;;;;;;;7.98;68.28;101231.63;5025582;28;20543;-43
2021/10/25 12:07:14;;;;;;;6.40;5.10;;;;;;;7.98;68.14;101226.38;5031007;28;20030;-43
2021/10/25 12:09:39;;;;;;;5.85;5.25;;;;;;;8.00;68.10;101222.00;5029902;28;20064;-43
2021/10/25 12:12:14;;;;;;;5.70;5.15;;;;;;;8.00;68.38;101208.88;5036191;28;21049;-44
2021/10/25 12:15:04;;;;;;;5.35;4.82;;;;;;;8.01;68.26;101205.41;5031139;28;20049;-42
2021/10/25 12:17:33;;;;;;;6.10;5.30;;;;;;;8.02;68.18;101211.50;5023761;28;20640;-42
2021/10/25 12:20:05;;;;;;;5.50;5.00;;;;;;;7.99;68.24;101206.22;5032753;28;20087;-45
2021/10/25 12:22:30;;;;;;;5.88;5.28;;;;;;;8.02;68.41;101204.53;5030120;28;20033;-43
2021/10/25 12:24:57;;;;;;;5.40;4.90;;;;;;;8.01;68.38;101205.41;5035397;28;20439;-43
2021/10/25 12:27:27;;;;;;;5.75;5.05;;;;;;;8.03;68.37;101211.53;5037991;28;20473;-43
2021/10/25 12:30:15;;;;;;;5.35;4.82;;;;;;;8.04;68.32;101210.66;5034198;28;20022;-43
2021/10/25 12:32:59;;;;;;;6.13;4.90;;;;;;;8.05;68.21;101201.94;5025894;28;20084;-44
2021/10/25 12:35:43;;;;;;;6.07;4.78;;;;;;;8.04;68.26;101202.78;5025321;28;20513;-43
2021/10/25 12:38:11;;;;;;;8.85;4.85;;;;;;;8.04;68.24;101204.53;5036435;28;20030;-43
2021/10/25 12:40:52;;;;;;;5.72;4.80;;;;;;;8.03;68.65;101198.38;5031827;28;20033;-42
2021/10/25 12:43:17;;;;;;;5.13;4.70;;;;;;;8.03;68.40;101193.13;5047423;28;20024;-43
2021/10/25 12:45:57;;;;;;;5.07;4.47;;;;;;;8.04;68.33;101194.88;5048357;28;20444;-44
2021/10/25 12:48:22;;;;;;;5.38;4.40;;;;;;;8.05;68.62;101204.56;5034129;28;20017;-43
2021/10/25 12:50:50;;;;;;;4.43;4.03;;;;;;;8.05;68.57;101196.69;5030940;28;20663;-43
2021/10/25 12:53:16;;;;;;;5.60;5.00;;;;;;;8.06;68.50;101201.06;5017996;28;20034;-43
2021/10/25 12:55:53;;;;;;;5.35;4.85;;;;;;;8.07;68.40;101197.56;5015933;28;20018;-43
2021/10/25 12:58:21;;;;;;;5.13;4.63;;;;;;;8.08;68.46;101191.41;5015289;28;20033;-43
2021/10/25 13:00:47;;;;;;;5.30;4.80;;;;;;;8.08;68.28;101180.06;5023741;28;20044;-43
2021/10/25 13:03:12;;;;;;;5.13;4.63;;;;;;;8.09;68.05;101182.69;5031101;28;20064;-43
2021/10/25 13:05:38;;;;;;;4.97;4.47;;;;;;;8.08;68.45;101175.66;5031944;28;20021;-43
2021/10/25 13:08:08;;;;;;;6.05;5.00;;;;;;;8.11;68.29;101180.09;5029909;28;20024;-43
2021/10/25 13:10:36;;;;;;;4.57;4.15;;;;;;;8.12;68.31;101178.31;5030186;28;20036;-43
2021/10/25 13:13:33;;;;;;;5.50;4.28;;;;;;;8.13;68.51;101169.59;5031418;28;20062;-43
2021/10/25 13:15:59;;;;;;;5.60;5.03;;;;;;;8.13;68.36;101172.22;5042440;28;20057;-43